createdAt,value
2023-02-22T00:00:23.300Z,12.00
2023-02-22T00:04:47.823Z,13.52
2023-02-22T00:08:50.916Z,16.52
2023-02-22T00:12:54.854Z,19.00
2023-02-22T00:17:00.064Z,13.65
2023-02-22T00:21:04.550Z,15.43
2023-02-22T00:25:07.963Z,14.77
2023-02-22T00:33:19.632Z,10.75
2023-02-22T00:37:24.584Z,12.65
2023-02-22T00:41:30.601Z,11.05
2023-02-22T00:45:35.536Z,16.17
2023-02-22T00:49:39.244Z,16.88
2023-02-22T00:53:43.656Z,18.20
2023-02-22T00:57:46.910Z,14.27
2023-02-22T01:01:50.019Z,17.83
2023-02-22T01:05:53.280Z,15.35
2023-02-22T01:09:57.901Z,20.10
2023-02-22T01:14:01.718Z,17.75
2023-02-22T01:18:05.365Z,18.02
2023-02-22T01:22:08.953Z,12.23
2023-02-22T01:26:13.892Z,15.60
2023-02-22T01:30:17.660Z,13.13
2023-02-22T01:34:21.015Z,19.58
2023-02-22T01:38:24.518Z,19.13
2023-02-22T01:42:30.895Z,13.75
2023-02-22T01:46:34.226Z,12.15
2023-02-22T01:50:42.864Z,11.30
2023-02-22T01:54:49.262Z,16.95
2023-02-22T01:58:59.707Z,17.08
2023-02-22T02:03:07.533Z,14.30
2023-02-22T02:07:14.523Z,12.80
2023-02-22T02:11:25.136Z,13.07
2023-02-22T02:15:32.273Z,16.65
2023-02-22T02:19:59.775Z,16.90
2023-02-22T02:24:31.360Z,8.77
2023-02-22T02:29:12.597Z,12.85
2023-02-22T02:33:23.203Z,12.90
2023-02-22T02:37:34.612Z,16.80
2023-02-22T02:41:42.210Z,12.30
2023-02-22T02:45:49.116Z,11.30
2023-02-22T02:49:59.860Z,19.80
2023-02-22T02:54:04.482Z,11.30
2023-02-22T02:58:11.631Z,15.55
2023-02-22T03:02:38.029Z,10.68
2023-02-22T03:06:57.286Z,14.07
2023-02-22T03:11:15.419Z,11.32
2023-02-22T03:15:37.367Z,16.80
2023-02-22T03:19:49.995Z,17.23
2023-02-22T03:24:03.199Z,18.63
2023-02-22T03:28:11.903Z,15.80
2023-02-22T03:32:20.340Z,11.07
2023-02-22T03:36:26.300Z,18.48
2023-02-22T03:40:39.449Z,21.08
2023-02-22T03:44:47.742Z,21.00
2023-02-22T03:48:57.881Z,12.00
2023-02-22T03:53:01.052Z,9.90
2023-02-22T03:57:11.280Z,19.33
2023-02-22T04:01:15.968Z,11.07
2023-02-22T04:05:20.045Z,13.63
2023-02-22T04:09:23.153Z,12.07
2023-02-22T04:13:27.779Z,14.90
2023-02-22T04:17:30.753Z,8.77
2023-02-22T04:21:34.075Z,16.05
2023-02-22T04:25:36.952Z,10.30
2023-02-22T04:29:41.413Z,10.07
2023-02-22T04:37:46.586Z,11.80
2023-02-22T04:41:49.413Z,14.65
2023-02-22T04:45:53.924Z,12.23
2023-02-22T04:49:57.141Z,9.52
2023-02-22T04:54:00.471Z,14.88
2023-02-22T04:58:03.586Z,15.55
2023-02-22T05:02:17.665Z,14.60
2023-02-22T05:06:21.069Z,12.73
2023-02-22T05:10:24.953Z,15.95
2023-02-22T05:14:28.072Z,12.05
2023-02-22T05:18:32.581Z,13.18
2023-02-22T05:22:36.493Z,14.98
2023-02-22T05:26:40.702Z,13.27
2023-02-22T05:30:44.088Z,13.50
2023-02-22T05:34:49.012Z,12.25
2023-02-22T05:38:52.200Z,11.38
2023-02-22T05:42:56.945Z,10.85
2023-02-22T05:46:59.942Z,11.40
2023-02-22T05:51:06.684Z,15.07
2023-02-22T05:55:15.696Z,11.13
2023-02-22T05:59:18.824Z,12.68
2023-02-22T06:03:26.093Z,12.23
2023-02-22T06:07:35.384Z,14.18
2023-02-22T06:11:40.261Z,13.02
2023-02-22T06:15:43.476Z,16.17
2023-02-22T06:19:46.566Z,16.45
2023-02-22T06:23:51.035Z,12.15
2023-02-22T06:27:55.197Z,13.68
2023-02-22T06:32:01.148Z,10.80
2023-02-22T06:36:04.352Z,14.10
2023-02-22T06:40:12.781Z,12.00
2023-02-22T06:44:16.760Z,15.23
2023-02-22T06:48:20.183Z,15.30
2023-02-22T06:52:25.239Z,13.02
2023-02-22T06:56:33.094Z,12.70
2023-02-22T07:00:36.094Z,14.07
2023-02-22T07:04:40.403Z,12.57
2023-02-22T07:08:45.038Z,13.25
2023-02-22T07:12:50.398Z,11.57
2023-02-22T07:16:53.563Z,13.52
2023-02-22T07:20:58.866Z,13.13
2023-02-22T07:25:02.026Z,13.00
2023-02-22T07:29:06.846Z,11.15
2023-02-22T07:33:12.958Z,11.40
2023-02-22T07:37:16.404Z,10.55
2023-02-22T07:41:23.068Z,7.93
2023-02-22T07:45:34.012Z,11.93
2023-02-22T07:49:36.868Z,7.00
2023-02-22T07:53:39.790Z,7.40
2023-02-22T07:57:42.865Z,11.40
2023-02-22T08:01:46.999Z,7.78
2023-02-22T08:05:55.516Z,6.50
2023-02-22T08:09:58.545Z,7.45
2023-02-22T08:14:01.681Z,5.20
2023-02-22T08:18:09.292Z,8.05
2023-02-22T08:22:12.392Z,7.68
2023-02-22T08:26:18.739Z,4.60
2023-02-22T08:30:24.125Z,7.78
2023-02-22T08:34:30.879Z,7.68
2023-02-22T08:38:37.939Z,6.45
2023-02-22T08:42:40.980Z,6.90
2023-02-22T08:46:44.221Z,7.18
2023-02-22T08:50:49.220Z,6.88
2023-02-22T08:54:52.157Z,5.35
2023-02-22T08:58:55.137Z,5.60
2023-02-22T09:03:02.650Z,6.80
2023-02-22T09:07:07.564Z,8.35
2023-02-22T09:11:10.893Z,6.20
2023-02-22T09:15:14.435Z,5.72
2023-02-22T09:19:17.471Z,4.85
2023-02-22T09:23:22.424Z,5.68
2023-02-22T09:27:28.357Z,5.50
2023-02-22T09:31:32.872Z,4.50
2023-02-22T09:35:36.528Z,7.10
2023-02-22T09:39:42.235Z,5.55
2023-02-22T09:43:51.953Z,6.15
2023-02-22T09:48:05.275Z,7.00
2023-02-22T09:52:28.508Z,5.97
2023-02-22T09:56:35.222Z,8.93
2023-02-22T10:00:39.974Z,7.97
2023-02-22T10:04:49.613Z,7.88
2023-02-22T10:08:56.694Z,5.97
2023-02-22T10:13:10.604Z,4.45
2023-02-22T10:17:24.504Z,4.93
2023-02-22T10:22:05.398Z,6.15
2023-02-22T10:26:24.111Z,5.60
2023-02-22T10:30:35.280Z,4.38
2023-02-22T10:34:44.026Z,3.88
2023-02-22T10:38:52.889Z,4.78
2023-02-22T10:42:55.932Z,3.38
2023-02-22T10:47:02.701Z,4.13
2023-02-22T10:51:09.009Z,4.40
2023-02-22T10:55:16.179Z,4.68
2023-02-22T10:59:30.344Z,3.17
2023-02-22T11:03:35.870Z,4.07
2023-02-22T11:07:38.911Z,6.18
2023-02-22T11:11:44.105Z,4.50
2023-02-22T11:15:47.152Z,4.95
2023-02-22T11:19:54.208Z,5.22
2023-02-22T11:24:05.252Z,5.97
2023-02-22T11:28:11.068Z,6.05
2023-02-22T11:32:21.203Z,3.85
2023-02-22T11:36:40.847Z,2.83
2023-02-22T11:40:45.807Z,4.72
2023-02-22T11:44:50.275Z,7.53
2023-02-22T11:49:01.802Z,9.60
2023-02-22T11:53:26.869Z,6.75
2023-02-22T11:57:46.568Z,6.93
2023-02-22T12:01:55.345Z,6.93
2023-02-22T12:06:20.564Z,5.70
2023-02-22T12:10:40.236Z,5.25
2023-02-22T12:14:54.264Z,8.40
2023-02-22T12:19:13.056Z,7.97
2023-02-22T12:23:21.837Z,6.95
2023-02-22T12:27:33.372Z,6.50
2023-02-22T12:31:40.242Z,7.20
2023-02-22T12:35:50.637Z,5.47
2023-02-22T12:40:08.553Z,7.47
2023-02-22T12:44:20.390Z,6.05
2023-02-22T12:48:46.816Z,7.20
2023-02-22T12:52:58.102Z,8.45
2023-02-22T12:57:10.072Z,4.97
2023-02-22T13:01:20.448Z,8.13
2023-02-22T13:05:24.574Z,7.88
2023-02-22T13:09:55.457Z,6.72
2023-02-22T13:14:16.732Z,7.60
2023-02-22T13:18:29.881Z,8.07
2023-02-22T13:22:41.940Z,5.32
2023-02-22T13:26:51.965Z,9.25
2023-02-22T13:31:09.219Z,7.00
2023-02-22T13:35:41.547Z,8.20
2023-02-22T13:40:14.204Z,6.90
2023-02-22T13:44:48.083Z,6.55
2023-02-22T13:49:25.376Z,7.80
2023-02-22T13:53:39.217Z,5.20
2023-02-22T13:57:49.094Z,7.10
2023-02-22T14:01:55.191Z,4.63
2023-02-22T14:06:01.516Z,4.18
2023-02-22T14:10:07.048Z,6.20
2023-02-22T14:14:17.524Z,5.20
2023-02-22T14:18:21.847Z,9.13
2023-02-22T14:22:30.528Z,8.27
2023-02-22T14:26:39.112Z,6.85
2023-02-22T14:30:42.932Z,9.40
2023-02-22T14:34:51.059Z,6.13
2023-02-22T14:38:56.364Z,7.53
2023-02-22T14:43:05.378Z,6.03
2023-02-22T14:47:15.297Z,5.25
2023-02-22T14:51:25.138Z,4.68
2023-02-22T14:55:34.394Z,6.53
2023-02-22T14:59:50.154Z,5.13
2023-02-22T15:04:07.256Z,8.45
2023-02-22T15:08:11.677Z,5.10
2023-02-22T15:12:30.277Z,6.00
2023-02-22T15:16:36.642Z,4.85
2023-02-22T15:20:39.929Z,6.72
2023-02-22T15:25:01.641Z,6.65
2023-02-22T15:29:10.906Z,7.68
2023-02-22T15:33:24.332Z,6.18
2023-02-22T15:37:29.432Z,7.93
2023-02-22T15:41:36.533Z,6.95
2023-02-22T15:45:43.432Z,8.05
2023-02-22T15:50:08.508Z,6.20
2023-02-22T15:54:26.578Z,9.68
2023-02-22T15:58:31.481Z,9.40
2023-02-22T16:02:38.987Z,7.63
2023-02-22T16:06:43.971Z,8.57
2023-02-22T16:10:55.021Z,6.45
2023-02-22T16:14:58.731Z,8.40
2023-02-22T16:19:36.788Z,6.63
2023-02-22T16:23:50.636Z,8.57
2023-02-22T16:27:58.172Z,5.75
2023-02-22T16:32:02.307Z,6.93
2023-02-22T16:36:09.849Z,7.55
2023-02-22T16:40:25.152Z,5.80
2023-02-22T16:44:28.829Z,7.40
2023-02-22T16:48:38.452Z,7.05
2023-02-22T16:52:44.576Z,6.25
2023-02-22T16:56:51.359Z,6.72
2023-02-22T17:00:57.686Z,9.35
2023-02-22T17:05:01.187Z,7.13
2023-02-22T17:09:04.614Z,8.27
2023-02-22T17:13:22.461Z,7.30
2023-02-22T17:17:27.837Z,5.78
2023-02-22T17:21:31.347Z,6.00
2023-02-22T17:25:40.351Z,9.18
2023-02-22T17:29:49.281Z,10.00
2023-02-22T17:33:52.715Z,8.80
2023-02-22T17:37:55.693Z,9.82
2023-02-22T17:42:03.161Z,10.98
2023-02-22T17:46:12.167Z,8.63
2023-02-22T17:50:15.698Z,8.15
2023-02-22T17:54:21.780Z,9.75
2023-02-22T17:58:29.910Z,9.98
2023-02-22T18:02:34.809Z,10.43
2023-02-22T18:06:39.192Z,11.20
2023-02-22T18:10:44.019Z,10.00
2023-02-22T18:14:47.080Z,10.05
2023-02-22T18:18:51.625Z,8.90
2023-02-22T18:22:55.679Z,8.73
2023-02-22T18:26:58.847Z,10.70
2023-02-22T18:31:07.443Z,9.10
2023-02-22T18:35:17.422Z,10.18
2023-02-22T18:39:20.699Z,8.73
2023-02-22T18:43:23.757Z,8.38
2023-02-22T18:47:28.884Z,7.70
2023-02-22T18:51:33.783Z,8.52
2023-02-22T18:55:38.486Z,8.82
2023-02-22T18:59:41.644Z,9.40
2023-02-22T19:03:47.814Z,8.82
2023-02-22T19:07:56.350Z,7.85
2023-02-22T19:11:59.522Z,9.65
2023-02-22T19:16:03.373Z,8.20
2023-02-22T19:20:11.046Z,8.93
2023-02-22T19:24:19.567Z,9.88
2023-02-22T19:28:30.693Z,9.52
2023-02-22T19:32:34.045Z,8.43
2023-02-22T19:36:40.841Z,6.82
2023-02-22T19:40:45.723Z,9.40
2023-02-22T19:44:48.972Z,10.07
2023-02-22T19:48:53.003Z,12.18
2023-02-22T19:52:56.293Z,12.65
2023-02-22T19:57:01.449Z,9.15
2023-02-22T20:01:07.349Z,8.43
2023-02-22T20:05:16.817Z,8.40
2023-02-22T20:09:30.103Z,8.77
2023-02-22T20:13:35.764Z,7.80
2023-02-22T20:17:41.822Z,9.77
2023-02-22T20:21:44.974Z,10.40
2023-02-22T20:25:54.289Z,7.55
2023-02-22T20:29:58.889Z,9.13
2023-02-22T20:34:02.964Z,9.07
2023-02-22T20:38:06.277Z,10.65
2023-02-22T20:42:11.036Z,7.10
2023-02-22T20:46:15.601Z,8.43
2023-02-22T20:50:20.522Z,4.28
2023-02-22T20:54:23.572Z,7.70
2023-02-22T20:58:27.638Z,9.60
2023-02-22T21:02:32.954Z,11.50
2023-02-22T21:06:39.276Z,3.90
2023-02-22T21:10:43.789Z,6.82
2023-02-22T21:14:46.656Z,6.93
2023-02-22T21:18:54.676Z,5.35
2023-02-22T21:22:57.950Z,7.80
2023-02-22T21:27:01.009Z,6.85
2023-02-22T21:31:11.533Z,9.52
2023-02-22T21:35:17.840Z,8.70
2023-02-22T21:39:20.866Z,8.48
2023-02-22T21:43:25.401Z,9.43
2023-02-22T21:47:31.344Z,9.40
2023-02-22T21:51:37.911Z,10.90
2023-02-22T21:55:41.191Z,13.18
2023-02-22T21:59:45.293Z,10.73
2023-02-22T22:03:48.439Z,9.95
2023-02-22T22:07:52.487Z,5.55
2023-02-22T22:11:58.542Z,8.38
2023-02-22T22:16:05.521Z,5.45
2023-02-22T22:20:11.873Z,7.10
2023-02-22T22:24:16.483Z,9.05
2023-02-22T22:28:20.013Z,8.27
2023-02-22T22:32:22.755Z,6.50
2023-02-22T22:36:27.906Z,5.78
2023-02-22T22:40:34.624Z,8.02
2023-02-22T22:44:42.379Z,8.07
2023-02-22T22:48:47.386Z,7.82
2023-02-22T22:52:50.187Z,7.60
2023-02-22T22:56:55.061Z,8.00
2023-02-22T23:01:00.992Z,8.85
2023-02-22T23:05:04.201Z,7.35
2023-02-22T23:09:11.743Z,7.75
2023-02-22T23:13:16.143Z,4.32
2023-02-22T23:17:31.464Z,7.70
2023-02-22T23:21:36.062Z,12.35
2023-02-22T23:25:42.182Z,9.80
2023-02-22T23:29:47.152Z,9.25
2023-02-22T23:33:51.174Z,12.05
2023-02-22T23:41:59.948Z,6.78
2023-02-22T23:46:10.983Z,8.73
2023-02-22T23:50:14.521Z,7.15
2023-02-22T23:54:19.898Z,8.15
2023-02-22T23:58:24.197Z,7.72
